Time;durP1;ratioP1;P1;durP2;ratioP2;P2;SDS_P1;SDS_P2;PMS_P1;PMS_P2;Temp;Humidity;BMP_temperature;BMP_pressure;BME280_temperature;BME280_humidity;BME280_pressure;Samples;Min_cycle;Max_cycle;Signal;HPM_P1;HPM_P2
2022/05/31 00:01:05;;;;;;;;;;;21.00;45.70;;;;;;5020805;28;20426;-75
2022/05/31 00:03:30;;;;;;;;;;;21.00;45.80;;;;;;5027638;28;19913;-75
2022/05/31 00:05:56;;;;;;;;;;;21.00;46.00;;;;;;5034632;28;19943;-75
2022/05/31 00:08:21;;;;;;;;;;;21.00;46.00;;;;;;5043575;28;20376;-75
2022/05/31 00:10:46;;;;;;;;;;;21.00;46.10;;;;;;5023805;28;19912;-75
2022/05/31 00:13:12;;;;;;;;;;;21.00;46.00;;;;;;5045572;28;19920;-74
2022/05/31 00:15:37;;;;;;;;;;;21.00;45.90;;;;;;5023698;28;19920;-75
2022/05/31 00:18:03;;;;;;;;;;;21.00;46.00;;;;;;5051718;28;19916;-75
2022/05/31 00:20:28;;;;;;;;;;;21.00;46.00;;;;;;5052700;28;19909;-75
2022/05/31 00:22:54;;;;;;;;;;;20.90;46.00;;;;;;5024976;28;19964;-75
2022/05/31 00:25:20;;;;;;;;;;;20.90;45.90;;;;;;5037099;28;19999;-76
2022/05/31 00:27:45;;;;;;;;;;;20.90;46.00;;;;;;5025686;28;19935;-76
2022/05/31 00:30:12;;;;;;;;;;;20.90;46.00;;;;;;5040864;28;19959;-76
2022/05/31 00:32:40;;;;;;;;;;;20.90;46.00;;;;;;5046515;28;20376;-76
2022/05/31 00:35:12;;;;;;;;;;;20.90;46.10;;;;;;5042296;28;19917;-76
2022/05/31 00:37:38;;;;;;;;;;;20.90;46.00;;;;;;5047179;28;19921;-76
2022/05/31 00:40:04;;;;;;;;;;;20.90;46.10;;;;;;5044355;28;20344;-76
2022/05/31 00:42:45;;;;;;;;;;;20.90;46.10;;;;;;5045012;28;19919;-76
2022/05/31 00:45:10;;;;;;;;;;;20.90;46.00;;;;;;5029229;28;20383;-76
2022/05/31 00:47:35;;;;;;;;;;;20.90;46.10;;;;;;5041003;28;19913;-76
2022/05/31 00:50:06;;;;;;;;;;;20.90;46.20;;;;;;5052040;28;19916;-76
2022/05/31 00:52:35;;;;;;;;;;;20.90;46.20;;;;;;5052407;28;19924;-76
2022/05/31 00:55:01;;;;;;;;;;;20.90;46.30;;;;;;5051840;28;19913;-76
2022/05/31 00:57:26;;;;;;;;;;;20.90;46.30;;;;;;5035597;28;19986;-75
2022/05/31 00:59:57;;;;;;;;;;;20.90;46.40;;;;;;5023932;28;20372;-76
2022/05/31 01:02:23;;;;;;;;;;;20.90;46.40;;;;;;5033612;28;19920;-76
2022/05/31 01:05:09;;;;;;;;;;;20.90;46.30;;;;;;5040913;28;19964;-75
2022/05/31 01:07:35;;;;;;;;;;;20.90;46.40;;;;;;5043904;28;19966;-75
2022/05/31 01:10:03;;;;;;;;;;;20.90;46.50;;;;;;5046529;28;20003;-75
2022/05/31 01:12:28;;;;;;;;;;;20.80;46.30;;;;;;5044787;28;19914;-76
2022/05/31 01:14:54;;;;;;;;;;;20.90;46.60;;;;;;5044797;28;19913;-76
2022/05/31 01:17:21;;;;;;;;;;;20.80;46.60;;;;;;5043924;28;19909;-75
2022/05/31 01:19:56;;;;;;;;;;;20.80;46.40;;;;;;5050750;28;19912;-75
2022/05/31 01:22:33;;;;;;;;;;;20.80;46.30;;;;;;5042418;28;19924;-76
2022/05/31 01:25:11;;;;;;;;;;;20.80;46.30;;;;;;5039088;28;19913;-76
2022/05/31 01:27:55;;;;;;;;;;;20.80;46.40;;;;;;5024683;28;19916;-75
2022/05/31 01:30:21;;;;;;;;;;;20.80;46.40;;;;;;5044857;28;19996;-76
2022/05/31 01:33:00;;;;;;;;;;;20.80;46.40;;;;;;5043376;28;20047;-75
2022/05/31 01:35:30;;;;;;;;;;;20.80;46.50;;;;;;5041743;28;19913;-76
2022/05/31 01:38:11;;;;;;;;;;;20.80;46.50;;;;;;5040377;28;20055;-76
2022/05/31 01:40:40;;;;;;;;;;;20.80;46.50;;;;;;5050802;28;19947;-75
2022/05/31 01:43:06;;;;;;;;;;;20.80;46.60;;;;;;5042900;28;20387;-76
2022/05/31 01:45:43;;;;;;;;;;;20.80;46.60;;;;;;5026726;28;19913;-77
2022/05/31 01:48:09;;;;;;;;;;;20.80;46.90;;;;;;5045656;28;20007;-77
2022/05/31 01:50:35;;;;;;;;;;;20.80;46.80;;;;;;5031812;28;19955;-76
2022/05/31 01:53:00;;;;;;;;;;;20.80;46.90;;;;;;5035779;28;19928;-76
2022/05/31 01:55:26;;;;;;;;;;;20.80;47.60;;;;;;5026525;28;19909;-76
2022/05/31 01:57:56;;;;;;;;;;;20.80;47.10;;;;;;5041346;28;19928;-76
2022/05/31 02:00:21;;;;;;;;;;;20.80;47.10;;;;;;5031601;28;19924;-76
2022/05/31 02:02:49;;;;;;;;;;;20.80;47.30;;;;;;5048027;28;20287;-77
2022/05/31 02:05:15;;;;;;;;;;;20.80;47.00;;;;;;5038162;28;19917;-77
2022/05/31 02:07:41;;;;;;;;;;;20.70;46.30;;;;;;5049082;28;20430;-76
2022/05/31 02:10:07;;;;;;;;;;;20.70;43.60;;;;;;5048341;28;19909;-76
2022/05/31 02:12:32;;;;;;;;;;;20.50;42.40;;;;;;5033776;28;19913;-76
2022/05/31 02:14:58;;;;;;;;;;;20.40;41.90;;;;;;5050636;28;19913;-75
2022/05/31 02:17:24;;;;;;;;;;;20.20;41.40;;;;;;5050442;28;19920;-76
2022/05/31 02:19:49;;;;;;;;;;;20.00;41.00;;;;;;5032940;28;19913;-76
2022/05/31 02:22:16;;;;;;;;;;;19.90;40.60;;;;;;5049098;28;19920;-76
2022/05/31 02:24:41;;;;;;;;;;;19.90;40.80;;;;;;5044213;28;20012;-75
2022/05/31 02:27:07;;;;;;;;;;;19.80;40.80;;;;;;5046337;28;20399;-76
2022/05/31 02:29:34;;;;;;;;;;;19.80;40.50;;;;;;5036609;28;19909;-77
2022/05/31 02:32:01;;;;;;;;;;;19.70;40.40;;;;;;5053038;28;20434;-77
2022/05/31 02:34:29;;;;;;;;;;;19.70;40.40;;;;;;5052206;28;19969;-76
2022/05/31 02:36:55;;;;;;;;;;;19.60;39.90;;;;;;5054975;28;20397;-76
2022/05/31 02:39:20;;;;;;;;;;;19.40;39.60;;;;;;5046876;28;19917;-76
2022/05/31 02:41:46;;;;;;;;;;;19.40;39.70;;;;;;5048396;28;19917;-76
2022/05/31 02:44:13;;;;;;;;;;;19.30;39.70;;;;;;5039160;28;20283;-75
2022/05/31 02:46:40;;;;;;;;;;;19.20;39.60;;;;;;5031427;28;19920;-76
2022/05/31 02:49:06;;;;;;;;;;;19.20;40.30;;;;;;5050889;28;19943;-76
2022/05/31 02:51:36;;;;;;;;;;;19.20;39.60;;;;;;5040241;28;20341;-76
2022/05/31 02:54:02;;;;;;;;;;;19.10;39.70;;;;;;5047049;28;19909;-76
2022/05/31 02:56:27;;;;;;;;;;;19.00;39.80;;;;;;5053945;28;19924;-76
2022/05/31 02:58:53;;;;;;;;;;;18.90;39.70;;;;;;5035073;28;20330;-76
2022/05/31 03:01:20;;;;;;;;;;;18.90;39.80;;;;;;5048686;28;19912;-76
2022/05/31 03:03:45;;;;;;;;;;;18.90;39.90;;;;;;5029884;28;20008;-76
2022/05/31 03:06:10;;;;;;;;;;;18.80;40.00;;;;;;5046117;28;20388;-76
2022/05/31 03:08:36;;;;;;;;;;;18.80;39.90;;;;;;5053093;28;19935;-76
2022/05/31 03:11:02;;;;;;;;;;;18.70;40.00;;;;;;5035647;28;20003;-77
2022/05/31 03:13:29;;;;;;;;;;;18.60;40.30;;;;;;5053972;28;19967;-76
2022/05/31 03:15:59;;;;;;;;;;;18.60;39.90;;;;;;5041878;28;19910;-76
2022/05/31 03:18:26;;;;;;;;;;;18.60;40.50;;;;;;5048977;28;19917;-76
2022/05/31 03:20:54;;;;;;;;;;;18.50;39.80;;;;;;5038258;28;20261;-76
2022/05/31 03:23:25;;;;;;;;;;;18.50;39.80;;;;;;5047064;28;19909;-76
2022/05/31 03:25:52;;;;;;;;;;;18.50;39.90;;;;;;5035629;28;19924;-76
2022/05/31 03:28:17;;;;;;;;;;;18.40;39.80;;;;;;5053667;28;19913;-76
2022/05/31 03:30:43;;;;;;;;;;;18.40;39.80;;;;;;5051503;28;20355;-76
2022/05/31 03:33:10;;;;;;;;;;;18.30;39.90;;;;;;5029513;28;19956;-76
2022/05/31 03:35:36;;;;;;;;;;;18.30;40.00;;;;;;5037335;28;20136;-76
2022/05/31 03:38:01;;;;;;;;;;;18.30;39.90;;;;;;5036279;28;20334;-76
2022/05/31 03:43:11;;;;;;;;;;;18.30;40.00;;;;;;5054258;28;19954;-76
2022/05/31 03:45:38;;;;;;;;;;;18.20;39.90;;;;;;5051850;28;20351;-76
2022/05/31 03:48:04;;;;;;;;;;;18.20;39.90;;;;;;5030414;28;19913;-76
2022/05/31 03:50:29;;;;;;;;;;;18.20;39.90;;;;;;5048920;28;20006;-76
2022/05/31 03:52:55;;;;;;;;;;;18.10;39.80;;;;;;5042908;28;19986;-76
2022/05/31 03:55:21;;;;;;;;;;;18.10;40.10;;;;;;5022364;28;20075;-75
2022/05/31 03:57:47;;;;;;;;;;;18.10;40.20;;;;;;5043765;28;19913;-75
2022/05/31 04:00:13;;;;;;;;;;;18.00;40.30;;;;;;5052021;28;19919;-75
2022/05/31 04:02:38;;;;;;;;;;;18.00;40.20;;;;;;5044357;28;19909;-76
2022/05/31 04:05:04;;;;;;;;;;;18.00;40.20;;;;;;5047200;28;19920;-75
2022/05/31 04:07:29;;;;;;;;;;;18.00;40.20;;;;;;5046272;28;19957;-75
2022/05/31 04:09:55;;;;;;;;;;;18.00;40.40;;;;;;5044561;28;19932;-75
2022/05/31 04:12:20;;;;;;;;;;;18.00;40.50;;;;;;5047431;28;19909;-75
2022/05/31 04:14:46;;;;;;;;;;;18.00;40.40;;;;;;5036341;28;19947;-76
2022/05/31 04:17:11;;;;;;;;;;;18.00;40.40;;;;;;5053554;28;20273;-76
2022/05/31 04:19:37;;;;;;;;;;;18.00;40.40;;;;;;5052141;28;19920;-75
2022/05/31 04:22:02;;;;;;;;;;;18.00;40.30;;;;;;5042254;28;20376;-74
2022/05/31 04:24:28;;;;;;;;;;;18.00;40.30;;;;;;5051749;28;19913;-75
2022/05/31 04:26:53;;;;;;;;;;;18.00;40.30;;;;;;5049930;28;19909;-75
2022/05/31 04:29:19;;;;;;;;;;;18.00;40.30;;;;;;5046419;28;19913;-74
2022/05/31 04:31:44;;;;;;;;;;;18.00;40.10;;;;;;5052226;28;20002;-75
2022/05/31 04:34:10;;;;;;;;;;;18.00;40.10;;;;;;5049467;28;19924;-74
2022/05/31 04:36:36;;;;;;;;;;;18.00;40.40;;;;;;5048308;28;19913;-74
2022/05/31 04:39:01;;;;;;;;;;;18.00;40.10;;;;;;5041970;28;19920;-74
2022/05/31 04:41:28;;;;;;;;;;;18.10;40.30;;;;;;5050371;28;19923;-75
2022/05/31 04:43:55;;;;;;;;;;;18.10;40.40;;;;;;5046360;28;19909;-74
2022/05/31 04:46:22;;;;;;;;;;;18.20;40.50;;;;;;5053086;28;19913;-74
2022/05/31 04:48:48;;;;;;;;;;;18.20;40.40;;;;;;5032220;28;19909;-75
2022/05/31 04:51:13;;;;;;;;;;;18.30;40.20;;;;;;5042759;28;20004;-75
2022/05/31 04:53:39;;;;;;;;;;;18.40;40.10;;;;;;5052152;28;20320;-76
2022/05/31 04:56:06;;;;;;;;;;;18.50;39.70;;;;;;5047722;28;19959;-75
2022/05/31 04:58:32;;;;;;;;;;;18.50;39.40;;;;;;5034072;28;19925;-75
2022/05/31 05:01:01;;;;;;;;;;;18.60;39.50;;;;;;5043953;28;19920;-75
2022/05/31 05:03:30;;;;;;;;;;;18.60;39.40;;;;;;5046408;28;20710;-75
2022/05/31 05:06:02;;;;;;;;;;;18.60;39.10;;;;;;5034405;28;19939;-75
2022/05/31 05:08:28;;;;;;;;;;;18.60;39.30;;;;;;5047959;28;20368;-75
2022/05/31 05:10:54;;;;;;;;;;;18.60;39.50;;;;;;5035919;28;19913;-76
2022/05/31 05:13:19;;;;;;;;;;;18.70;39.30;;;;;;5032790;28;20253;-76
2022/05/31 05:15:45;;;;;;;;;;;18.70;39.30;;;;;;5049880;28;20326;-76
2022/05/31 05:18:11;;;;;;;;;;;18.70;39.50;;;;;;5035933;28;19924;-76
2022/05/31 05:20:37;;;;;;;;;;;18.70;39.20;;;;;;5014282;28;19917;-76
2022/05/31 05:23:04;;;;;;;;;;;18.70;39.40;;;;;;5041893;28;20304;-76
2022/05/31 05:25:29;;;;;;;;;;;18.70;39.50;;;;;;5023642;28;20380;-75
2022/05/31 05:27:55;;;;;;;;;;;18.80;39.60;;;;;;5032017;28;19909;-75
2022/05/31 05:30:40;;;;;;;;;;;18.90;39.30;;;;;;5031742;28;22233;-76
2022/05/31 05:33:06;;;;;;;;;;;19.00;39.20;;;;;;5032101;28;19952;-75
2022/05/31 05:35:32;;;;;;;;;;;19.00;39.00;;;;;;5031920;28;20002;-75
2022/05/31 05:37:59;;;;;;;;;;;18.90;39.20;;;;;;5031879;28;19913;-75
2022/05/31 05:40:25;;;;;;;;;;;18.90;39.30;;;;;;5031418;28;19909;-76
2022/05/31 05:42:50;;;;;;;;;;;18.90;39.20;;;;;;5031673;28;19910;-76
2022/05/31 05:45:18;;;;;;;;;;;18.90;39.40;;;;;;5031122;28;19909;-76
2022/05/31 05:47:43;;;;;;;;;;;18.90;39.50;;;;;;5031939;28;19913;-76
2022/05/31 05:50:09;;;;;;;;;;;18.90;39.40;;;;;;5031483;28;20427;-76
2022/05/31 05:52:35;;;;;;;;;;;19.00;39.20;;;;;;5031927;28;19916;-76
2022/05/31 05:55:01;;;;;;;;;;;18.90;39.30;;;;;;5031723;28;19923;-76
2022/05/31 05:57:27;;;;;;;;;;;19.00;39.50;;;;;;5031768;28;19916;-76
2022/05/31 05:59:52;;;;;;;;;;;19.00;39.40;;;;;;5030202;28;19912;-76
2022/05/31 06:02:21;;;;;;;;;;;18.90;39.20;;;;;;5030546;28;19909;-76
2022/05/31 06:04:50;;;;;;;;;;;18.90;39.30;;;;;;5030269;28;19965;-77
2022/05/31 06:07:18;;;;;;;;;;;18.80;39.50;;;;;;5031678;28;19917;-76
2022/05/31 06:09:46;;;;;;;;;;;18.80;39.60;;;;;;5031286;28;20319;-75
2022/05/31 06:12:15;;;;;;;;;;;18.90;39.80;;;;;;5031679;28;19909;-76
2022/05/31 06:14:53;;;;;;;;;;;18.80;39.60;;;;;;5030258;28;19994;-76
2022/05/31 06:17:21;;;;;;;;;;;18.80;40.40;;;;;;5029761;28;19916;-76
2022/05/31 06:19:48;;;;;;;;;;;18.90;39.80;;;;;;5030479;28;20387;-76
2022/05/31 06:22:13;;;;;;;;;;;19.10;39.60;;;;;;5031155;28;19909;-77
2022/05/31 06:24:39;;;;;;;;;;;19.90;39.70;;;;;;5029681;28;19916;-76
2022/05/31 06:27:05;;;;;;;;;;;20.50;38.50;;;;;;5031038;28;19913;-76
2022/05/31 06:29:31;;;;;;;;;;;20.90;38.40;;;;;;5030700;28;19909;-77
2022/05/31 06:31:56;;;;;;;;;;;21.40;37.50;;;;;;5031054;28;19936;-77
2022/05/31 06:34:23;;;;;;;;;;;20.90;37.50;;;;;;5030970;28;19917;-77
2022/05/31 06:36:49;;;;;;;;;;;21.70;37.60;;;;;;5030983;28;20289;-77
2022/05/31 06:39:15;;;;;;;;;;;22.40;36.70;;;;;;5030551;28;19920;-77
2022/05/31 06:41:40;;;;;;;;;;;23.10;35.70;;;;;;5030994;28;20368;-78
2022/05/31 06:44:06;;;;;;;;;;;22.90;35.40;;;;;;5030884;28;19962;-78
2022/05/31 06:46:31;;;;;;;;;;;23.40;35.10;;;;;;5030869;28;20321;-78
2022/05/31 06:48:58;;;;;;;;;;;23.40;34.20;;;;;;5030533;28;19910;-77
2022/05/31 06:56:54;;;;;;;;;;;23.50;33.70;;;;;;5042886;28;20415;-76
2022/05/31 06:59:19;;;;;;;;;;;23.80;33.40;;;;;;5044259;28;19913;-76
2022/05/31 07:01:47;;;;;;;;;;;24.00;33.00;;;;;;5044746;28;19913;-76
2022/05/31 07:04:13;;;;;;;;;;;24.20;32.60;;;;;;5025221;28;19966;-76
2022/05/31 07:06:38;;;;;;;;;;;24.30;32.50;;;;;;5043238;28;20368;-76
2022/05/31 07:09:04;;;;;;;;;;;24.60;32.30;;;;;;5041337;28;20292;-76
2022/05/31 07:11:30;;;;;;;;;;;24.90;31.60;;;;;;5044817;28;19908;-76
2022/05/31 07:13:55;;;;;;;;;;;25.00;31.10;;;;;;5054006;28;20280;-77
2022/05/31 07:16:21;;;;;;;;;;;25.20;30.80;;;;;;5054125;28;19916;-78
2022/05/31 07:18:46;;;;;;;;;;;25.40;30.80;;;;;;5053576;28;19917;-78
2022/05/31 07:21:12;;;;;;;;;;;25.50;30.50;;;;;;5036241;28;19913;-77
2022/05/31 07:23:40;;;;;;;;;;;25.90;30.90;;;;;;5035887;28;19909;-78
2022/05/31 07:26:06;;;;;;;;;;;25.90;30.30;;;;;;5053713;28;20003;-77
2022/05/31 07:28:32;;;;;;;;;;;26.20;30.80;;;;;;5053531;28;20399;-78
2022/05/31 07:30:57;;;;;;;;;;;26.70;37.50;;;;;;5053741;28;19916;-77
2022/05/31 07:33:23;;;;;;;;;;;26.70;37.80;;;;;;5053773;28;19947;-77
2022/05/31 07:35:49;;;;;;;;;;;27.00;39.20;;;;;;5035747;28;19913;-77
2022/05/31 07:38:20;;;;;;;;;;;27.20;38.20;;;;;;5054068;28;20407;-77
2022/05/31 07:40:45;;;;;;;;;;;27.20;38.60;;;;;;5054062;28;19916;-77
2022/05/31 07:43:11;;;;;;;;;;;26.90;39.30;;;;;;5054235;28;19962;-77
2022/05/31 07:45:37;;;;;;;;;;;26.80;39.50;;;;;;5054272;28;20330;-77
2022/05/31 07:48:03;;;;;;;;;;;26.60;40.00;;;;;;5054128;28;19912;-77
2022/05/31 07:50:28;;;;;;;;;;;26.30;41.10;;;;;;5053579;28;19916;-77
2022/05/31 07:52:54;;;;;;;;;;;26.80;40.60;;;;;;5054206;28;20403;-77
2022/05/31 07:55:19;;;;;;;;;;;27.10;41.30;;;;;;5053992;28;19909;-77
2022/05/31 08:00:30;;;;;;;;;;;26.80;41.20;;;;;;5053941;28;19916;-77
2022/05/31 08:02:55;;;;;;;;;;;26.70;42.40;;;;;;5054071;28;19920;-77
2022/05/31 08:05:21;;;;;;;;;;;26.60;42.70;;;;;;5053956;28;19917;-77
2022/05/31 08:07:46;;;;;;;;;;;26.20;43.10;;;;;;5035354;28;19958;-77
2022/05/31 08:10:13;;;;;;;;;;;26.30;44.00;;;;;;5053775;28;19915;-77
2022/05/31 08:12:39;;;;;;;;;;;26.20;43.60;;;;;;5036535;28;20399;-78
2022/05/31 08:15:05;;;;;;;;;;;26.40;44.00;;;;;;5054257;28;19952;-77
2022/05/31 08:17:30;;;;;;;;;;;26.10;43.00;;;;;;5053433;28;19916;-77
2022/05/31 08:19:56;;;;;;;;;;;26.10;43.10;;;;;;5054008;28;19944;-77
2022/05/31 08:22:21;;;;;;;;;;;26.50;42.80;;;;;;5053846;28;19920;-77
2022/05/31 08:24:47;;;;;;;;;;;26.70;42.40;;;;;;5053690;28;20302;-77
2022/05/31 08:27:12;;;;;;;;;;;26.90;42.10;;;;;;5053439;28;20482;-77
2022/05/31 08:29:38;;;;;;;;;;;27.30;41.60;;;;;;5053828;28;19909;-78
2022/05/31 08:32:04;;;;;;;;;;;27.50;41.40;;;;;;5053738;28;19913;-77
2022/05/31 08:34:29;;;;;;;;;;;27.80;40.80;;;;;;5053662;28;19909;-77
2022/05/31 08:36:55;;;;;;;;;;;27.80;40.80;;;;;;5053837;28;19939;-77
2022/05/31 08:39:20;;;;;;;;;;;27.80;40.50;;;;;;5052939;28;20386;-77
2022/05/31 08:41:47;;;;;;;;;;;27.50;41.00;;;;;;5052883;28;19908;-76
2022/05/31 08:44:33;;;;;;;;;;;27.30;41.30;;;;;;5052054;28;19909;-77
2022/05/31 08:46:59;;;;;;;;;;;27.60;40.70;;;;;;5053027;28;19909;-77
2022/05/31 08:51:52;;;;;;;;;;;27.10;40.40;;;;;;5036803;28;19958;-77
2022/05/31 08:52:24;;;;;;;;;;;27.20;40.70;;;;;;5065934;28;19919;-78
2022/05/31 08:57:39;;;;;;;;;;;27.40;40.50;;;;;;5046808;28;20070;-78
2022/05/31 09:00:07;;;;;;;;;;;27.40;40.40;;;;;;5032195;28;19913;-77
2022/05/31 09:02:37;;;;;;;;;;;27.20;40.90;;;;;;5044718;28;20288;-77
2022/05/31 09:05:13;;;;;;;;;;;27.10;41.40;;;;;;5033581;28;19927;-77
2022/05/31 09:07:40;;;;;;;;;;;26.90;41.60;;;;;;5052236;28;19909;-78
2022/05/31 09:10:26;;;;;;;;;;;26.80;41.90;;;;;;5051608;28;19909;-77
2022/05/31 09:12:55;;;;;;;;;;;26.90;41.70;;;;;;4987052;28;19927;-76
2022/05/31 09:15:32;;;;;;;;;;;26.90;41.00;;;;;;5034081;28;20364;-77
2022/05/31 09:18:05;;;;;;;;;;;26.90;40.80;;;;;;5031903;28;19928;-77
2022/05/31 09:20:30;;;;;;;;;;;26.70;41.30;;;;;;5031540;28;19958;-77
2022/05/31 09:22:56;;;;;;;;;;;26.70;41.90;;;;;;5040497;28;20000;-77
2022/05/31 09:25:21;;;;;;;;;;;26.70;42.10;;;;;;5051741;28;19967;-78
2022/05/31 09:27:48;;;;;;;;;;;26.50;42.40;;;;;;5051612;28;19935;-77
2022/05/31 09:30:13;;;;;;;;;;;26.20;41.90;;;;;;5051355;28;19909;-77
2022/05/31 09:33:04;;;;;;;;;;;26.30;41.60;;;;;;5051842;28;19909;-78
2022/05/31 09:35:48;;;;;;;;;;;26.40;41.50;;;;;;5051609;28;19995;-77
2022/05/31 09:38:32;;;;;;;;;;;26.40;41.10;;;;;;5051658;28;19913;-77
2022/05/31 09:41:05;;;;;;;;;;;26.30;40.70;;;;;;5050314;28;20375;-77
2022/05/31 09:43:50;;;;;;;;;;;26.20;40.90;;;;;;5051916;28;20096;-77
2022/05/31 09:46:34;;;;;;;;;;;26.50;40.70;;;;;;5033316;28;20450;-77
2022/05/31 09:49:08;;;;;;;;;;;26.90;40.30;;;;;;5038267;28;20015;-77
2022/05/31 09:51:38;;;;;;;;;;;26.90;40.80;;;;;;5036752;28;19939;-77
2022/05/31 09:57:06;;;;;;;;;;;26.30;41.60;;;;;;5044157;28;19959;-78
2022/05/31 09:59:33;;;;;;;;;;;26.10;42.20;;;;;;5016415;28;19925;-79
2022/05/31 10:02:19;;;;;;;;;;;26.00;42.50;;;;;;5013832;28;19924;-80
2022/05/31 10:04:46;;;;;;;;;;;25.80;42.60;;;;;;5030348;28;20363;-77
2022/05/31 10:07:11;;;;;;;;;;;25.80;42.50;;;;;;5031778;28;19920;-77
2022/05/31 10:09:38;;;;;;;;;;;25.80;43.00;;;;;;5041211;28;19916;-77
2022/05/31 10:12:13;;;;;;;;;;;25.50;42.90;;;;;;5032276;28;19913;-77
2022/05/31 10:14:49;;;;;;;;;;;25.30;43.20;;;;;;5048376;28;20406;-77
2022/05/31 10:17:47;;;;;;;;;;;25.10;43.40;;;;;;5051551;28;19910;-77
2022/05/31 10:20:16;;;;;;;;;;;25.00;43.80;;;;;;4989680;28;19917;-77
2022/05/31 10:22:51;;;;;;;;;;;24.90;43.90;;;;;;5051174;28;20422;-77
2022/05/31 10:25:23;;;;;;;;;;;24.90;44.20;;;;;;5051024;28;19909;-77
2022/05/31 10:27:54;;;;;;;;;;;24.70;44.30;;;;;;5050415;28;19916;-77
2022/05/31 10:30:22;;;;;;;;;;;24.70;45.30;;;;;;5036129;28;19933;-77
2022/05/31 10:32:51;;;;;;;;;;;24.50;44.50;;;;;;5036820;28;20498;-77
2022/05/31 10:35:30;;;;;;;;;;;24.50;43.90;;;;;;5037071;28;20003;-77
2022/05/31 10:38:15;;;;;;;;;;;24.40;44.20;;;;;;5054809;28;19912;-77
2022/05/31 10:40:53;;;;;;;;;;;24.40;44.60;;;;;;5045987;28;19917;-77
2022/05/31 10:43:45;;;;;;;;;;;24.30;44.60;;;;;;5042085;28;19979;-77
2022/05/31 10:46:29;;;;;;;;;;;24.20;44.60;;;;;;5035236;28;19913;-77
2022/05/31 10:48:56;;;;;;;;;;;24.20;44.60;;;;;;5042327;28;19918;-77
2022/05/31 10:51:34;;;;;;;;;;;24.40;44.90;;;;;;5017628;28;19909;-77
2022/05/31 10:53:59;;;;;;;;;;;24.00;44.50;;;;;;5051577;28;19995;-77
2022/05/31 10:56:25;;;;;;;;;;;24.00;44.50;;;;;;5035493;28;19948;-77
2022/05/31 10:58:54;;;;;;;;;;;24.10;44.50;;;;;;5035384;28;19917;-77
2022/05/31 11:01:28;;;;;;;;;;;24.00;44.60;;;;;;5035026;28;19915;-77
2022/05/31 11:04:00;;;;;;;;;;;24.40;44.80;;;;;;5034922;28;20370;-77
2022/05/31 11:06:38;;;;;;;;;;;24.10;44.50;;;;;;5054184;28;19991;-77
2022/05/31 11:12:24;;;;;;;;;;;23.90;44.30;;;;;;5054657;28;19920;-77
2022/05/31 11:15:09;;;;;;;;;;;23.80;44.10;;;;;;5053691;28;19920;-77
2022/05/31 11:17:47;;;;;;;;;;;24.00;44.40;;;;;;5053089;28;19955;-76
2022/05/31 11:20:51;;;;;;;;;;;23.90;44.30;;;;;;5035745;28;20399;-77
2022/05/31 11:23:35;;;;;;;;;;;23.80;44.30;;;;;;4956578;28;20421;-77
2022/05/31 11:26:22;;;;;;;;;;;23.80;44.40;;;;;;4953486;28;19915;-77
2022/05/31 11:28:59;;;;;;;;;;;23.70;44.40;;;;;;5025863;28;19939;-77
2022/05/31 11:31:24;;;;;;;;;;;23.70;43.80;;;;;;5043430;28;19917;-77
2022/05/31 11:34:00;;;;;;;;;;;23.80;44.30;;;;;;5035484;28;19920;-78
2022/05/31 11:36:36;;;;;;;;;;;23.70;44.20;;;;;;5033803;28;19920;-79
2022/05/31 11:39:24;;;;;;;;;;;23.70;44.40;;;;;;5047963;28;19919;-78
2022/05/31 11:41:59;;;;;;;;;;;23.60;44.00;;;;;;5035709;28;19912;-78
2022/05/31 11:44:34;;;;;;;;;;;23.60;42.40;;;;;;5034558;28;19920;-78
2022/05/31 11:47:04;;;;;;;;;;;23.60;41.50;;;;;;5034317;28;19984;-78
2022/05/31 11:49:35;;;;;;;;;;;23.70;40.90;;;;;;5016281;28;19911;-78
2022/05/31 11:52:08;;;;;;;;;;;23.70;40.40;;;;;;5048780;28;19918;-78
2022/05/31 11:55:25;;;;;;;;;;;23.70;40.40;;;;;;5050234;28;19912;-78
2022/05/31 11:57:45;;;;;;;;;;;23.70;40.50;;;;;;5048225;28;19994;-79
2022/05/31 12:00:17;;;;;;;;;;;23.70;40.30;;;;;;5043881;28;19913;-77
2022/05/31 12:02:46;;;;;;;;;;;23.70;40.50;;;;;;5046519;28;19919;-77
2022/05/31 12:05:22;;;;;;;;;;;23.70;40.50;;;;;;5041367;28;19924;-77
2022/05/31 12:08:06;;;;;;;;;;;23.70;40.40;;;;;;5030035;28;19916;-77
2022/05/31 12:10:35;;;;;;;;;;;23.70;40.60;;;;;;5026332;28;20364;-77
2022/05/31 12:13:07;;;;;;;;;;;23.80;40.30;;;;;;5051077;28;20368;-77
2022/05/31 12:15:34;;;;;;;;;;;23.70;40.10;;;;;;5029690;28;19991;-77
2022/05/31 12:18:19;;;;;;;;;;;23.60;40.60;;;;;;5033310;28;19959;-77
2022/05/31 12:20:56;;;;;;;;;;;23.50;40.30;;;;;;5026756;28;20348;-77
2022/05/31 12:23:32;;;;;;;;;;;23.50;40.30;;;;;;5024591;28;19909;-77
2022/05/31 12:25:59;;;;;;;;;;;23.40;39.80;;;;;;5033368;28;19958;-77
2022/05/31 12:28:31;;;;;;;;;;;23.40;40.10;;;;;;5038979;28;20008;-77
2022/05/31 12:30:56;;;;;;;;;;;23.50;39.60;;;;;;5016604;28;19963;-77
2022/05/31 12:33:39;;;;;;;;;;;23.40;40.20;;;;;;5051414;28;20354;-77
2022/05/31 12:36:05;;;;;;;;;;;23.50;39.60;;;;;;5047770;28;19971;-78
2022/05/31 12:38:50;;;;;;;;;;;23.50;39.30;;;;;;5040666;28;19957;-78
2022/05/31 12:41:30;;;;;;;;;;;23.40;39.90;;;;;;5041966;28;20004;-79
2022/05/31 12:43:58;;;;;;;;;;;23.50;39.70;;;;;;5015625;28;19917;-78
2022/05/31 12:46:35;;;;;;;;;;;23.50;40.00;;;;;;5048095;28;20372;-78
2022/05/31 12:49:05;;;;;;;;;;;23.50;39.70;;;;;;5052629;28;20422;-78
2022/05/31 12:51:31;;;;;;;;;;;23.40;40.10;;;;;;5035931;28;20312;-79
2022/05/31 12:53:58;;;;;;;;;;;23.50;40.40;;;;;;5035043;28;19959;-78
2022/05/31 12:56:30;;;;;;;;;;;23.50;40.40;;;;;;5046848;28;19909;-79
2022/05/31 12:58:55;;;;;;;;;;;23.40;40.60;;;;;;5035715;28;19921;-79
2022/05/31 13:01:24;;;;;;;;;;;23.40;40.60;;;;;;5052561;28;19993;-79
2022/05/31 13:03:50;;;;;;;;;;;23.30;40.20;;;;;;5040067;28;20481;-79
2022/05/31 13:06:17;;;;;;;;;;;23.30;40.40;;;;;;5052627;28;19917;-79
2022/05/31 13:08:43;;;;;;;;;;;23.50;40.80;;;;;;5020268;28;19919;-79
2022/05/31 13:19:41;;;;;;;;;;;23.10;39.70;;;;;;5055964;28;20366;-79
2022/05/31 13:22:09;;;;;;;;;;;23.30;39.30;;;;;;5043554;28;19913;-79
2022/05/31 13:24:38;;;;;;;;;;;23.40;40.10;;;;;;5042544;28;19909;-79
2022/05/31 13:27:07;;;;;;;;;;;23.40;38.80;;;;;;5035456;28;19913;-79
2022/05/31 13:29:33;;;;;;;;;;;23.20;39.40;;;;;;5047299;28;20273;-78
2022/05/31 13:32:00;;;;;;;;;;;23.40;40.00;;;;;;5020389;28;19916;-79
2022/05/31 13:34:31;;;;;;;;;;;23.30;40.20;;;;;;5046534;28;19921;-78
2022/05/31 13:36:58;;;;;;;;;;;23.20;40.10;;;;;;5034292;28;19909;-78
2022/05/31 13:39:24;;;;;;;;;;;23.30;39.80;;;;;;5041822;28;19967;-79
2022/05/31 13:41:51;;;;;;;;;;;23.40;39.20;;;;;;5030152;28;20376;-78
2022/05/31 13:44:22;;;;;;;;;;;23.40;39.20;;;;;;5045925;28;20067;-77
2022/05/31 13:46:48;;;;;;;;;;;23.20;38.40;;;;;;5032162;28;20364;-77
2022/05/31 13:49:16;;;;;;;;;;;23.20;39.10;;;;;;5045008;28;20004;-77
2022/05/31 13:51:52;;;;;;;;;;;23.40;39.30;;;;;;5040071;28;19940;-78
2022/05/31 13:54:19;;;;;;;;;;;23.20;39.60;;;;;;5036361;28;19970;-77
2022/05/31 13:56:45;;;;;;;;;;;23.30;40.20;;;;;;5049103;28;19924;-78
2022/05/31 13:59:11;;;;;;;;;;;23.30;40.20;;;;;;5045313;28;19916;-78
2022/05/31 14:01:39;;;;;;;;;;;23.20;40.60;;;;;;5032015;28;19924;-78
2022/05/31 14:04:10;;;;;;;;;;;23.20;40.40;;;;;;5046350;28;19920;-78
2022/05/31 14:06:38;;;;;;;;;;;23.20;40.50;;;;;;5045385;28;19963;-78
2022/05/31 14:09:05;;;;;;;;;;;23.20;40.80;;;;;;5049205;28;19968;-78
2022/05/31 14:11:33;;;;;;;;;;;23.20;40.80;;;;;;5041149;28;20265;-77
2022/05/31 14:14:00;;;;;;;;;;;23.20;41.20;;;;;;5042753;28;19974;-78
2022/05/31 14:16:32;;;;;;;;;;;23.30;41.20;;;;;;5045970;28;20011;-78
2022/05/31 14:18:59;;;;;;;;;;;23.20;41.10;;;;;;5030932;28;19920;-78
2022/05/31 14:21:25;;;;;;;;;;;23.30;41.40;;;;;;5047020;28;19909;-78
2022/05/31 14:23:51;;;;;;;;;;;23.10;41.30;;;;;;5014735;28;19909;-77
2022/05/31 14:26:17;;;;;;;;;;;23.00;41.40;;;;;;5050738;28;19939;-78
2022/05/31 14:29:01;;;;;;;;;;;23.00;41.20;;;;;;5048919;28;20383;-78
2022/05/31 14:31:27;;;;;;;;;;;23.00;41.30;;;;;;5041582;28;20416;-79
2022/05/31 14:33:58;;;;;;;;;;;23.10;41.70;;;;;;5044463;28;19955;-78
2022/05/31 14:36:35;;;;;;;;;;;23.20;41.90;;;;;;5033189;28;19912;-79
2022/05/31 14:39:02;;;;;;;;;;;23.00;41.60;;;;;;5050347;28;19920;-79
2022/05/31 14:41:31;;;;;;;;;;;23.10;42.00;;;;;;5025021;28;20372;-78
2022/05/31 14:43:59;;;;;;;;;;;23.10;41.80;;;;;;5045205;28;19913;-78
2022/05/31 14:46:26;;;;;;;;;;;23.10;42.10;;;;;;5047758;28;20032;-79
2022/05/31 14:49:02;;;;;;;;;;;23.00;42.20;;;;;;5036328;28;19932;-79
2022/05/31 14:51:30;;;;;;;;;;;23.10;42.30;;;;;;5038781;28;19909;-79
2022/05/31 14:53:56;;;;;;;;;;;23.00;42.50;;;;;;5048079;28;19920;-79
2022/05/31 14:56:27;;;;;;;;;;;23.00;42.90;;;;;;5035210;28;20007;-79